createdAt,value
2018-01-31T01:52:23.703Z,9.18
2018-01-31T01:54:51.167Z,9.40
2018-01-31T01:57:18.631Z,9.07
2018-01-31T01:59:46.112Z,9.80
2018-01-31T02:02:13.567Z,9.60
2018-01-31T02:04:41.028Z,11.15
2018-01-31T02:07:08.515Z,10.82
2018-01-31T02:09:36.000Z,10.70
2018-01-31T02:12:03.460Z,11.10
2018-01-31T02:14:30.927Z,10.47
2018-01-31T02:16:58.387Z,11.90
2018-01-31T02:19:25.868Z,11.90
2018-01-31T02:21:53.497Z,12.70
2018-01-31T02:24:20.964Z,12.65
2018-01-31T02:26:48.432Z,12.50
2018-01-31T02:29:15.912Z,13.40
2018-01-31T02:31:43.400Z,14.30
2018-01-31T02:34:10.856Z,14.57
2018-01-31T02:36:38.313Z,15.98
2018-01-31T02:42:06.692Z,17.30
2018-01-31T02:44:34.256Z,17.95
2018-01-31T02:47:01.720Z,18.67
2018-01-31T02:49:29.189Z,19.17
2018-01-31T02:51:56.660Z,18.85
2018-01-31T02:54:24.129Z,20.40
2018-01-31T02:56:51.697Z,20.50
2018-01-31T02:59:19.170Z,21.15
2018-01-31T03:01:46.640Z,23.15
2018-01-31T03:04:14.095Z,22.40
2018-01-31T03:06:41.572Z,23.62
2018-01-31T03:09:09.036Z,24.30
2018-01-31T03:11:36.507Z,25.40
2018-01-31T03:14:03.976Z,25.60
2018-01-31T03:16:31.428Z,25.58
2018-01-31T03:18:58.893Z,27.08
2018-01-31T03:21:26.402Z,26.90
2018-01-31T03:23:53.822Z,28.10
2018-01-31T03:26:21.284Z,27.77
2018-01-31T03:28:48.748Z,29.63
2018-01-31T03:31:16.205Z,27.67
2018-01-31T03:33:44.448Z,29.12
2018-01-31T03:36:11.908Z,28.10
2018-01-31T03:38:39.359Z,31.00
2018-01-31T03:41:06.812Z,28.67
2018-01-31T03:43:34.268Z,29.35
2018-01-31T03:46:02.496Z,28.25
2018-01-31T03:48:29.958Z,29.77
2018-01-31T03:50:57.431Z,28.98
2018-01-31T03:53:24.891Z,29.25
2018-01-31T03:55:52.352Z,28.98
2018-01-31T03:58:19.821Z,27.35
2018-01-31T04:00:47.272Z,24.98
2018-01-31T04:03:15.508Z,27.30
2018-01-31T04:05:42.969Z,26.40
2018-01-31T04:08:10.436Z,24.65
2018-01-31T04:10:37.912Z,24.35
2018-01-31T04:13:05.379Z,24.92
2018-01-31T04:15:32.864Z,24.08
2018-01-31T04:18:00.323Z,22.75
2018-01-31T04:20:27.800Z,20.65
2018-01-31T04:22:55.284Z,20.20
2018-01-31T04:25:22.752Z,20.55
2018-01-31T04:27:50.219Z,19.70
2018-01-31T04:30:17.692Z,19.33
2018-01-31T04:32:45.176Z,19.67
2018-01-31T04:35:12.636Z,18.80
2018-01-31T04:37:40.204Z,19.08
2018-01-31T04:40:08.432Z,18.30
2018-01-31T04:42:35.947Z,17.10
2018-01-31T04:45:03.411Z,17.70
2018-01-31T04:47:30.879Z,16.65
2018-01-31T04:49:58.340Z,16.17
2018-01-31T04:52:25.804Z,16.05
2018-01-31T04:54:53.267Z,17.12
2018-01-31T04:57:20.731Z,16.47
2018-01-31T04:59:48.205Z,15.87
2018-01-31T05:02:15.667Z,16.37
2018-01-31T05:04:43.134Z,16.00
2018-01-31T05:07:10.589Z,15.60
2018-01-31T05:09:38.932Z,16.57
2018-01-31T05:12:06.389Z,17.70
2018-01-31T05:14:33.876Z,16.87
2018-01-31T05:17:01.356Z,16.35
2018-01-31T05:19:29.577Z,17.20
2018-01-31T05:21:57.824Z,18.48
2018-01-31T05:24:25.328Z,19.00
2018-01-31T05:26:53.584Z,17.48
2018-01-31T05:29:21.040Z,16.17
2018-01-31T05:31:48.565Z,16.43
2018-01-31T05:34:16.028Z,16.13
2018-01-31T05:36:44.252Z,15.50
2018-01-31T05:39:11.703Z,17.10
2018-01-31T05:41:39.206Z,16.90
2018-01-31T05:44:06.652Z,17.37
2018-01-31T05:46:34.111Z,14.70
2018-01-31T05:49:01.663Z,15.80
2018-01-31T05:51:29.917Z,16.00
2018-01-31T05:53:59.116Z,16.37
2018-01-31T05:56:26.599Z,14.80
2018-01-31T05:58:54.052Z,16.77
2018-01-31T06:01:21.507Z,16.05
2018-01-31T06:03:48.973Z,16.50
2018-01-31T06:06:16.467Z,16.70
2018-01-31T06:08:44.031Z,16.50
2018-01-31T06:11:11.496Z,15.60
2018-01-31T06:13:39.021Z,14.70
2018-01-31T06:16:07.244Z,15.80
2018-01-31T06:18:34.727Z,14.55
2018-01-31T06:21:02.249Z,15.30
2018-01-31T06:23:30.564Z,14.13
2018-01-31T06:25:58.264Z,14.48
2018-01-31T06:28:25.743Z,15.23
2018-01-31T06:30:53.200Z,14.32
2018-01-31T06:33:20.665Z,14.02
2018-01-31T06:35:48.120Z,12.80
2018-01-31T06:38:15.627Z,13.05
2018-01-31T06:40:43.088Z,12.90
2018-01-31T06:43:10.663Z,13.88
2018-01-31T06:45:38.140Z,14.20
2018-01-31T06:48:05.604Z,14.30
2018-01-31T06:50:33.172Z,14.65
2018-01-31T06:53:00.641Z,12.82
2018-01-31T06:55:28.108Z,12.80
2018-01-31T06:57:55.683Z,12.23
2018-01-31T07:00:23.149Z,11.55
2018-01-31T07:02:50.628Z,11.45
2018-01-31T07:05:18.096Z,12.65
2018-01-31T07:07:45.555Z,12.53
2018-01-31T07:10:13.128Z,11.20
2018-01-31T07:12:40.804Z,11.50
2018-01-31T07:15:08.277Z,12.60
2018-01-31T07:17:35.735Z,11.75
2018-01-31T07:20:03.211Z,11.52
2018-01-31T07:22:30.668Z,12.10
2018-01-31T07:24:58.152Z,11.90
2018-01-31T07:27:25.608Z,11.60
2018-01-31T07:29:53.061Z,11.30
2018-01-31T07:32:20.520Z,9.20
2018-01-31T07:34:48.025Z,8.48
2018-01-31T07:37:15.480Z,8.52
2018-01-31T07:39:42.937Z,8.10
2018-01-31T07:42:10.533Z,7.50
2018-01-31T07:44:37.980Z,6.85
2018-01-31T07:47:05.472Z,7.20
2018-01-31T07:49:32.946Z,7.37
2018-01-31T07:52:00.520Z,7.75
2018-01-31T07:54:27.968Z,8.10
2018-01-31T07:56:55.428Z,8.75
2018-01-31T07:59:22.916Z,8.27
2018-01-31T08:01:50.449Z,8.30
2018-01-31T08:04:17.900Z,8.18
2018-01-31T08:06:46.128Z,8.00
2018-01-31T08:09:13.832Z,7.50
2018-01-31T08:11:41.296Z,6.90
2018-01-31T08:14:08.874Z,7.25
2018-01-31T08:16:36.537Z,6.22
2018-01-31T08:19:04.004Z,5.65
2018-01-31T08:21:31.484Z,6.22
2018-01-31T08:23:59.056Z,6.00
2018-01-31T08:26:26.546Z,4.93
2018-01-31T08:28:54.004Z,5.45
2018-01-31T08:31:21.464Z,5.45
2018-01-31T08:33:48.933Z,4.62
2018-01-31T08:36:16.409Z,4.40
2018-01-31T08:38:45.371Z,5.23
2018-01-31T08:41:12.872Z,4.80
2018-01-31T08:43:40.440Z,5.45
2018-01-31T08:46:07.915Z,5.30
2018-01-31T08:48:35.376Z,4.60
2018-01-31T08:51:02.852Z,4.72
2018-01-31T08:53:30.427Z,4.25
2018-01-31T08:55:57.904Z,4.30
2018-01-31T08:58:26.868Z,4.75
2018-01-31T09:00:54.328Z,4.53
2018-01-31T09:03:21.841Z,4.10
2018-01-31T09:05:49.308Z,4.30
2018-01-31T09:08:16.760Z,4.62
2018-01-31T09:10:44.220Z,4.60
2018-01-31T09:13:11.668Z,4.80
2018-01-31T09:15:39.128Z,4.10
2018-01-31T09:18:06.593Z,3.80
2018-01-31T09:20:34.808Z,4.00
2018-01-31T09:23:02.276Z,4.18
2018-01-31T09:25:29.735Z,4.07
2018-01-31T09:27:57.199Z,4.10
2018-01-31T09:30:24.653Z,4.00
2018-01-31T09:32:52.872Z,4.20
2018-01-31T09:35:20.344Z,4.40
2018-01-31T09:37:47.796Z,4.60
2018-01-31T09:40:15.257Z,4.30
2018-01-31T09:42:42.736Z,4.37
2018-01-31T09:45:10.208Z,4.00
2018-01-31T09:47:37.672Z,3.58
2018-01-31T09:50:05.140Z,3.62
2018-01-31T09:52:34.937Z,3.30
2018-01-31T09:55:00.168Z,2.87
2018-01-31T09:57:28.396Z,3.10
2018-01-31T09:59:55.889Z,2.80
2018-01-31T10:02:23.463Z,3.05
2018-01-31T10:04:50.921Z,3.13
2018-01-31T10:07:18.388Z,3.10
2018-01-31T10:09:45.844Z,3.40
2018-01-31T10:12:13.331Z,3.10
2018-01-31T10:14:40.799Z,3.20
2018-01-31T10:17:08.272Z,3.12
2018-01-31T10:19:35.836Z,3.20
2018-01-31T10:22:03.299Z,3.50
2018-01-31T10:24:30.769Z,3.60
2018-01-31T10:26:58.247Z,3.30
2018-01-31T10:29:25.724Z,3.30
2018-01-31T10:31:53.243Z,3.20
2018-01-31T10:34:21.476Z,2.70
2018-01-31T10:36:48.948Z,3.10
2018-01-31T10:39:16.520Z,3.05
2018-01-31T10:41:43.976Z,3.30
2018-01-31T10:44:11.448Z,2.53
2018-01-31T10:46:38.904Z,2.60
2018-01-31T10:49:06.363Z,2.60
2018-01-31T10:51:33.863Z,2.90
2018-01-31T10:57:28.966Z,2.65
2018-01-31T10:58:56.391Z,2.67
2018-01-31T11:01:23.867Z,2.45
2018-01-31T11:03:51.346Z,2.25
2018-01-31T11:06:19.608Z,1.95
2018-01-31T11:08:47.076Z,1.97
2018-01-31T11:11:14.525Z,2.30
2018-01-31T11:13:42.008Z,2.00
2018-01-31T11:16:09.475Z,2.08
2018-01-31T11:18:36.948Z,1.90
2018-01-31T11:21:04.405Z,1.75
2018-01-31T11:23:31.860Z,1.90
2018-01-31T11:25:59.479Z,1.75
2018-01-31T11:28:27.045Z,1.70
2018-01-31T11:30:54.596Z,1.60
2018-01-31T11:33:22.068Z,1.40
2018-01-31T11:35:49.516Z,1.40
2018-01-31T11:38:16.978Z,1.50
2018-01-31T11:40:44.484Z,1.20
2018-01-31T11:43:11.944Z,1.85
2018-01-31T11:45:39.408Z,1.67
2018-01-31T11:48:06.863Z,1.80
2018-01-31T11:50:34.358Z,1.80
2018-01-31T11:53:01.927Z,1.45
2018-01-31T11:55:29.404Z,1.60
2018-01-31T11:57:56.860Z,1.60
2018-01-31T12:00:24.324Z,1.70
2018-01-31T12:02:51.805Z,1.80
2018-01-31T12:05:19.280Z,1.60
2018-01-31T12:07:46.750Z,1.80
2018-01-31T12:10:14.204Z,1.80
2018-01-31T12:12:47.212Z,2.30
2018-01-31T12:15:25.564Z,2.20
2018-01-31T12:17:53.162Z,2.40
2018-01-31T12:20:33.433Z,2.10
2018-01-31T12:23:12.908Z,2.80
2018-01-31T12:28:58.200Z,2.33
2018-01-31T12:31:45.512Z,2.20
2018-01-31T12:34:24.911Z,2.60
2018-01-31T12:37:16.168Z,2.03
2018-01-31T12:39:43.861Z,1.17
2018-01-31T12:42:10.832Z,1.30
2018-01-31T12:44:38.604Z,1.27
2018-01-31T12:47:19.604Z,1.60
2018-01-31T12:49:59.779Z,1.90
2018-01-31T12:52:40.212Z,1.80
2018-01-31T12:55:19.688Z,1.20
2018-01-31T12:57:59.119Z,1.35
2018-01-31T13:00:38.449Z,1.30
2018-01-31T13:03:17.914Z,1.20
2018-01-31T13:05:57.297Z,1.35
2018-01-31T13:08:36.730Z,1.85
2018-01-31T13:11:16.085Z,1.90
2018-01-31T13:16:55.062Z,1.60
2018-01-31T13:19:35.305Z,2.42
2018-01-31T13:22:07.312Z,1.75
2018-01-31T13:24:46.886Z,1.50
2018-01-31T13:27:24.868Z,1.30
2018-01-31T13:30:04.313Z,1.40
2018-01-31T13:32:43.707Z,1.17
2018-01-31T13:35:23.299Z,1.65
2018-01-31T13:38:08.456Z,1.50
2018-01-31T13:40:47.972Z,1.40
2018-01-31T13:43:27.503Z,1.17
2018-01-31T13:46:07.052Z,1.50
2018-01-31T13:48:46.611Z,1.30
2018-01-31T13:54:22.208Z,1.30
2018-01-31T13:57:01.756Z,1.70
2018-01-31T13:59:41.072Z,1.70
2018-01-31T14:02:20.492Z,2.00
2018-01-31T14:05:00.720Z,1.70
2018-01-31T14:07:40.278Z,1.70
2018-01-31T14:10:19.531Z,1.90
2018-01-31T14:12:59.131Z,1.75
2018-01-31T14:15:39.348Z,1.90
2018-01-31T14:18:18.755Z,1.90
2018-01-31T14:20:59.028Z,2.10
2018-01-31T14:23:38.564Z,1.80
2018-01-31T14:26:18.744Z,2.30
2018-01-31T14:28:58.913Z,1.98
2018-01-31T14:31:38.432Z,2.20
2018-01-31T14:34:17.724Z,2.30
2018-01-31T14:36:44.705Z,2.20
2018-01-31T14:39:11.684Z,2.10
2018-01-31T14:41:38.655Z,1.75
2018-01-31T14:44:05.616Z,2.40
2018-01-31T14:46:32.600Z,2.67
2018-01-31T14:49:00.333Z,2.20
2018-01-31T14:51:27.300Z,2.50
2018-01-31T14:53:54.340Z,2.40
2018-01-31T14:56:21.354Z,2.40
2018-01-31T14:58:49.080Z,2.10
2018-01-31T15:01:16.184Z,2.00
2018-01-31T15:03:44.020Z,1.90
2018-01-31T15:06:10.990Z,2.00
2018-01-31T15:08:38.128Z,1.80
2018-01-31T15:11:05.089Z,1.90
2018-01-31T15:13:32.053Z,1.90
2018-01-31T15:15:59.027Z,1.50
2018-01-31T15:18:26.066Z,1.40
2018-01-31T15:20:53.035Z,1.77
2018-01-31T15:23:20.083Z,1.58
2018-01-31T15:25:47.048Z,1.60
2018-01-31T15:28:14.096Z,1.50
2018-01-31T15:30:41.176Z,1.60
2018-01-31T15:33:08.152Z,1.75
2018-01-31T15:35:35.112Z,1.70
2018-01-31T15:38:02.848Z,1.90
2018-01-31T15:40:29.807Z,1.90
2018-01-31T15:42:56.800Z,1.50
2018-01-31T15:45:24.544Z,1.90
2018-01-31T15:47:51.624Z,2.00
2018-01-31T15:50:18.597Z,1.65
2018-01-31T15:52:45.570Z,1.77
2018-01-31T15:55:13.392Z,1.65
2018-01-31T15:57:40.362Z,1.90
2018-01-31T16:00:07.335Z,1.85
2018-01-31T16:02:34.379Z,1.90
2018-01-31T16:05:01.432Z,1.65
2018-01-31T16:07:28.408Z,1.80
2018-01-31T16:09:55.372Z,1.92
2018-01-31T16:12:22.349Z,1.67
2018-01-31T16:14:50.080Z,1.70
2018-01-31T16:17:17.540Z,1.73
2018-01-31T16:19:57.066Z,1.80
2018-01-31T16:22:24.512Z,2.10
2018-01-31T16:24:52.787Z,1.90
2018-01-31T16:27:22.717Z,1.70
2018-01-31T16:30:12.796Z,1.92
2018-01-31T16:32:52.196Z,1.92
2018-01-31T16:35:19.709Z,2.30
2018-01-31T16:37:47.166Z,2.20
2018-01-31T16:40:14.620Z,2.10
2018-01-31T16:42:43.096Z,1.70
2018-01-31T16:45:10.608Z,2.05
2018-01-31T16:47:38.075Z,2.30
2018-01-31T16:50:05.544Z,1.90
2018-01-31T16:52:33.021Z,2.87
2018-01-31T16:55:00.500Z,2.05
2018-01-31T16:57:27.955Z,1.20
2018-01-31T16:59:55.416Z,1.15
2018-01-31T17:02:22.896Z,0.90
2018-01-31T17:04:50.368Z,1.20
2018-01-31T17:07:17.827Z,1.27
2018-01-31T17:09:45.320Z,1.50
2018-01-31T17:12:13.560Z,1.20
2018-01-31T17:14:41.065Z,1.30
2018-01-31T17:17:08.531Z,1.23
2018-01-31T17:19:35.979Z,1.30
2018-01-31T17:22:03.596Z,1.27
2018-01-31T17:24:31.068Z,1.60
2018-01-31T17:26:58.520Z,1.60
2018-01-31T17:29:26.083Z,2.08
2018-01-31T17:31:53.652Z,1.40
2018-01-31T17:34:21.132Z,1.73
2018-01-31T17:36:48.599Z,2.30
2018-01-31T17:39:16.069Z,3.28
2018-01-31T17:41:43.527Z,2.10
2018-01-31T17:44:11.019Z,1.55
2018-01-31T17:46:38.584Z,2.10
2018-01-31T17:49:06.073Z,1.80
2018-01-31T17:51:34.340Z,1.48
2018-01-31T17:54:01.905Z,1.58
2018-01-31T17:56:29.477Z,1.40
2018-01-31T17:58:56.928Z,1.30
2018-01-31T18:01:24.408Z,1.60
2018-01-31T18:03:51.885Z,1.40
2018-01-31T18:06:19.360Z,1.40
2018-01-31T18:08:46.929Z,1.73
2018-01-31T18:11:14.449Z,1.85
2018-01-31T18:13:41.872Z,2.55
2018-01-31T18:16:09.486Z,4.95
2018-01-31T18:18:37.723Z,2.62
2018-01-31T18:21:05.195Z,2.40
2018-01-31T18:23:32.673Z,1.80
2018-01-31T18:26:00.132Z,1.37
2018-01-31T18:28:27.596Z,1.30
2018-01-31T18:30:55.061Z,1.23
2018-01-31T18:33:22.555Z,1.60
2018-01-31T18:35:50.028Z,1.60
2018-01-31T18:38:17.493Z,1.60
2018-01-31T18:40:44.962Z,3.20
2018-01-31T18:43:12.529Z,4.87
2018-01-31T18:45:39.985Z,4.20
2018-01-31T18:48:07.467Z,2.17
2018-01-31T18:50:34.924Z,1.40
2018-01-31T18:53:02.406Z,2.12
2018-01-31T18:55:29.887Z,1.50
2018-01-31T18:57:57.339Z,1.83
2018-01-31T19:00:24.817Z,1.42
2018-01-31T19:02:52.289Z,4.18
2018-01-31T19:05:19.740Z,1.70
2018-01-31T19:07:47.208Z,1.45
2018-01-31T19:10:15.113Z,1.50
2018-01-31T19:12:42.776Z,1.62
2018-01-31T19:15:10.240Z,1.40
2018-01-31T19:17:37.694Z,1.55
2018-01-31T19:20:05.184Z,1.98
2018-01-31T19:22:32.652Z,1.83
2018-01-31T19:25:00.239Z,1.90
2018-01-31T19:27:27.793Z,1.75
2018-01-31T19:29:55.248Z,2.00
2018-01-31T19:32:22.737Z,1.80
2018-01-31T19:34:50.212Z,2.00
2018-01-31T19:37:17.695Z,2.00
2018-01-31T19:39:45.157Z,2.30
2018-01-31T19:42:12.724Z,1.95
2018-01-31T19:44:40.283Z,1.83
2018-01-31T19:47:07.752Z,2.20
2018-01-31T19:49:35.216Z,2.10
2018-01-31T19:52:02.747Z,2.20
2018-01-31T19:54:30.959Z,2.20
2018-01-31T19:56:58.440Z,2.90
2018-01-31T19:59:25.899Z,3.10
2018-01-31T20:01:53.395Z,3.30
2018-01-31T20:04:20.860Z,3.40
2018-01-31T20:06:48.334Z,3.80
2018-01-31T20:09:15.789Z,4.00
2018-01-31T20:11:43.264Z,4.45
2018-01-31T20:14:10.717Z,4.83
2018-01-31T20:16:38.212Z,4.90
2018-01-31T20:19:05.676Z,5.20
2018-01-31T20:21:33.140Z,5.80
2018-01-31T20:24:00.624Z,6.20
2018-01-31T20:26:28.092Z,6.82
2018-01-31T20:28:55.559Z,6.53
2018-01-31T20:31:23.032Z,6.68
2018-01-31T20:33:50.488Z,6.90
2018-01-31T20:36:17.964Z,7.30
2018-01-31T20:38:45.497Z,6.90
2018-01-31T20:41:13.007Z,7.28
2018-01-31T20:43:40.479Z,7.35
2018-01-31T20:46:07.968Z,6.90
2018-01-31T20:48:35.516Z,7.10
2018-01-31T20:51:02.976Z,6.12
2018-01-31T20:53:30.464Z,7.40
2018-01-31T20:55:58.136Z,6.22
2018-01-31T20:58:25.607Z,6.82
2018-01-31T21:00:53.069Z,6.50
2018-01-31T21:03:20.524Z,6.35
2018-01-31T21:05:47.982Z,6.10
2018-01-31T21:08:15.489Z,5.87
2018-01-31T21:10:43.045Z,6.00
2018-01-31T21:13:10.570Z,5.70
2018-01-31T21:15:38.789Z,5.90
2018-01-31T21:18:06.300Z,6.00
2018-01-31T21:20:33.765Z,5.67
2018-01-31T21:23:01.228Z,5.80
2018-01-31T21:25:28.801Z,5.80
2018-01-31T21:27:56.465Z,5.57
2018-01-31T21:30:23.936Z,5.75
2018-01-31T21:32:51.421Z,5.60
2018-01-31T21:35:18.895Z,6.00
2018-01-31T21:37:46.352Z,5.70
2018-01-31T21:40:13.824Z,5.60
2018-01-31T21:42:41.284Z,6.40
2018-01-31T21:45:08.740Z,5.25
2018-01-31T21:47:36.322Z,6.30
2018-01-31T21:50:03.804Z,5.70
2018-01-31T21:52:32.132Z,5.65
2018-01-31T21:55:00.482Z,5.75
2018-01-31T21:57:39.908Z,5.90
2018-01-31T22:00:07.385Z,5.28
2018-01-31T22:02:34.856Z,6.40
2018-01-31T22:05:02.332Z,6.10
2018-01-31T22:07:29.808Z,5.15
2018-01-31T22:09:57.260Z,4.57
2018-01-31T22:12:24.712Z,3.30
2018-01-31T22:14:52.176Z,2.50
2018-01-31T22:17:19.680Z,2.40
2018-01-31T22:19:47.168Z,2.10
2018-01-31T22:22:14.670Z,2.33
2018-01-31T22:24:42.188Z,1.80
2018-01-31T22:27:09.676Z,2.30
2018-01-31T22:29:37.228Z,1.90
2018-01-31T22:32:04.680Z,1.90
2018-01-31T22:34:32.175Z,2.12
2018-01-31T22:36:59.624Z,1.92
2018-01-31T22:39:27.110Z,1.80
2018-01-31T22:41:54.680Z,1.60
2018-01-31T22:44:22.156Z,2.70
2018-01-31T22:46:49.618Z,1.90
2018-01-31T22:49:17.104Z,1.98
2018-01-31T22:51:44.570Z,1.80
2018-01-31T22:54:12.030Z,2.30
2018-01-31T22:56:39.494Z,2.40
2018-01-31T22:59:06.978Z,3.30
2018-01-31T23:01:34.432Z,3.70
2018-01-31T23:04:01.884Z,4.00
2018-01-31T23:06:29.347Z,2.75
2018-01-31T23:08:56.852Z,3.10
2018-01-31T23:11:30.052Z,3.40
2018-01-31T23:14:03.323Z,3.10
2018-01-31T23:16:30.780Z,4.00
2018-01-31T23:18:58.240Z,3.80
2018-01-31T23:21:25.704Z,4.37
2018-01-31T23:23:53.192Z,4.60
2018-01-31T23:26:20.672Z,4.00
2018-01-31T23:28:48.138Z,5.60
2018-01-31T23:31:15.592Z,5.35
2018-01-31T23:33:43.104Z,5.10
2018-01-31T23:36:10.564Z,5.80
2018-01-31T23:38:38.024Z,4.60
2018-01-31T23:41:05.573Z,4.43
2018-01-31T23:43:33.044Z,4.70
2018-01-31T23:46:00.557Z,4.90
2018-01-31T23:48:28.089Z,4.53
2018-01-31T23:50:55.542Z,5.60
2018-01-31T23:53:23.779Z,5.85
2018-01-31T23:55:51.264Z,5.53
2018-01-31T23:58:18.725Z,6.70
